Time;durP1;ratioP1;P1;durP2;ratioP2;P2;SDS_P1;SDS_P2;PMS_P1;PMS_P2;Temp;Humidity;BMP_temperature;BMP_pressure;BME280_temperature;BME280_humidity;BME280_pressure;Samples;Min_cycle;Max_cycle;Signal;HPM_P1;HPM_P2
2023/07/21 00:00:15;;;;;;;2.50;1.77;;;15.30;99.90;;;;;;4996064;28;20576;-59
2023/07/21 00:02:43;;;;;;;2.50;2.17;;;15.30;99.90;;;;;;4999104;28;20499;-60
2023/07/21 00:05:12;;;;;;;3.40;2.13;;;15.20;99.90;;;;;;4996104;28;20515;-57
2023/07/21 00:07:40;;;;;;;2.60;2.10;;;15.20;99.90;;;;;;5001026;28;20555;-59
2023/07/21 00:10:10;;;;;;;3.20;1.90;;;15.20;99.90;;;;;;4998235;28;20475;-59
2023/07/21 00:12:42;;;;;;;2.17;1.97;;;15.20;99.90;;;;;;4999751;28;20481;-58
2023/07/21 00:15:10;;;;;;;1.80;1.70;;;15.20;99.90;;;;;;4998853;28;20496;-59
2023/07/21 00:17:40;;;;;;;2.20;2.00;;;15.20;99.90;;;;;;5000971;28;20472;-60
2023/07/21 00:20:11;;;;;;;3.43;2.10;;;15.10;99.90;;;;;;4998178;28;20488;-58
2023/07/21 00:22:40;;;;;;;2.87;2.20;;;15.10;99.90;;;;;;4998585;28;20872;-60
2023/07/21 00:25:10;;;;;;;2.93;2.03;;;15.10;99.90;;;;;;4999429;28;20576;-60
2023/07/21 00:27:38;;;;;;;2.63;2.30;;;15.10;99.90;;;;;;5000523;28;20473;-59
2023/07/21 00:30:08;;;;;;;2.30;2.10;;;15.10;99.90;;;;;;4999747;28;20853;-60
2023/07/21 00:32:36;;;;;;;2.17;1.97;;;15.10;99.90;;;;;;5000267;28;20484;-59
2023/07/21 00:35:08;;;;;;;2.50;2.27;;;15.10;99.90;;;;;;4997573;28;20871;-60
2023/07/21 00:37:36;;;;;;;3.80;2.00;;;15.00;99.90;;;;;;4998457;28;20473;-58
2023/07/21 00:40:09;;;;;;;2.53;1.80;;;15.00;99.90;;;;;;4995503;28;20550;-60
2023/07/21 00:42:37;;;;;;;3.73;2.20;;;14.90;99.90;;;;;;4997359;28;21040;-58
2023/07/21 00:45:06;;;;;;;2.93;2.07;;;14.90;99.90;;;;;;4996832;28;20848;-60
2023/07/21 00:47:36;;;;;;;2.87;2.10;;;14.90;99.90;;;;;;4998045;28;20476;-59
2023/07/21 00:50:07;;;;;;;2.13;2.03;;;14.80;99.90;;;;;;4997270;28;20465;-60
2023/07/21 00:52:36;;;;;;;2.40;2.20;;;14.80;99.90;;;;;;4997361;28;20491;-59
2023/07/21 00:55:05;;;;;;;2.70;1.93;;;14.70;99.90;;;;;;4998561;28;20501;-58
2023/07/21 00:57:34;;;;;;;2.20;2.00;;;14.60;99.90;;;;;;4999190;28;20568;-60
2023/07/21 01:00:07;;;;;;;3.80;2.20;;;14.60;99.90;;;;;;4998888;28;20539;-60
2023/07/21 01:02:35;;;;;;;2.20;2.00;;;14.50;99.90;;;;;;4997776;28;21016;-59
2023/07/21 01:05:06;;;;;;;2.23;2.00;;;14.50;99.90;;;;;;4995225;28;20587;-59
2023/07/21 01:07:37;;;;;;;2.20;1.90;;;14.40;99.90;;;;;;4997915;28;20496;-58
2023/07/21 01:10:05;;;;;;;2.33;2.13;;;14.40;99.90;;;;;;4996439;28;20499;-59
2023/07/21 01:12:34;;;;;;;3.40;2.13;;;14.40;99.90;;;;;;4998638;28;20487;-60
2023/07/21 01:15:02;;;;;;;4.93;2.47;;;14.30;99.90;;;;;;4998405;28;20500;-60
2023/07/21 01:17:30;;;;;;;2.07;1.97;;;14.30;99.90;;;;;;4996370;28;21089;-59
2023/07/21 01:20:00;;;;;;;2.83;2.40;;;14.30;99.90;;;;;;4998942;28;20492;-59
2023/07/21 01:22:36;;;;;;;4.33;2.30;;;14.20;99.90;;;;;;4999331;28;20572;-59
2023/07/21 01:25:11;;;;;;;3.30;3.00;;;14.20;99.90;;;;;;4995151;28;20587;-59
2023/07/21 01:27:40;;;;;;;3.23;2.93;;;14.10;99.90;;;;;;4999849;28;20472;-60
2023/07/21 01:30:11;;;;;;;2.70;2.13;;;14.10;99.90;;;;;;4996152;28;20472;-60
2023/07/21 01:32:41;;;;;;;2.90;2.50;;;14.00;99.90;;;;;;4992983;28;20579;-59
2023/07/21 01:35:12;;;;;;;2.37;2.10;;;14.00;99.90;;;;;;4999729;28;21211;-59
2023/07/21 01:37:44;;;;;;;2.60;2.20;;;14.00;99.90;;;;;;4996984;28;20563;-59
2023/07/21 01:40:16;;;;;;;2.73;2.30;;;13.90;99.90;;;;;;4992528;28;20581;-58
2023/07/21 01:42:47;;;;;;;3.13;2.50;;;13.80;99.90;;;;;;4996114;28;20491;-59
2023/07/21 01:45:15;;;;;;;2.50;2.30;;;13.80;99.90;;;;;;4998772;28;20580;-59
2023/07/21 01:47:45;;;;;;;3.30;3.00;;;13.70;99.90;;;;;;4995969;28;20480;-59
2023/07/21 01:50:17;;;;;;;3.00;2.80;;;13.70;99.90;;;;;;4999922;28;20492;-59
2023/07/21 01:52:46;;;;;;;2.90;2.40;;;13.70;99.90;;;;;;4992220;28;20576;-58
2023/07/21 01:55:20;;;;;;;3.10;2.70;;;13.70;99.90;;;;;;4996308;28;20497;-58
2023/07/21 01:57:54;;;;;;;2.77;2.27;;;13.70;99.90;;;;;;4996893;28;20556;-59
2023/07/21 02:00:24;;;;;;;2.80;2.60;;;13.60;99.90;;;;;;4997245;28;20494;-59
2023/07/21 02:02:53;;;;;;;3.00;2.70;;;13.60;99.90;;;;;;4996642;28;20481;-59
2023/07/21 02:05:22;;;;;;;2.47;2.20;;;13.60;99.90;;;;;;4996561;28;20523;-59
2023/07/21 02:07:51;;;;;;;3.50;2.47;;;13.60;99.90;;;;;;4999041;28;20555;-58
2023/07/21 02:10:21;;;;;;;3.27;2.53;;;13.50;99.90;;;;;;4994226;28;22032;-58
2023/07/21 02:12:49;;;;;;;2.93;2.67;;;13.50;99.90;;;;;;4994733;28;20590;-58
2023/07/21 02:15:17;;;;;;;2.87;2.30;;;13.50;99.90;;;;;;4996527;28;21025;-58
2023/07/21 02:17:45;;;;;;;4.40;2.73;;;13.40;99.90;;;;;;5000338;28;20578;-57
2023/07/21 02:20:14;;;;;;;3.40;2.67;;;13.40;99.90;;;;;;4997652;28;20983;-59
2023/07/21 02:22:43;;;;;;;2.80;2.60;;;13.40;99.90;;;;;;4997774;28;21122;-59
2023/07/21 02:25:12;;;;;;;3.87;2.70;;;13.40;99.90;;;;;;4996703;28;20499;-58
2023/07/21 02:27:42;;;;;;;2.73;2.37;;;13.30;99.90;;;;;;4997675;28;20472;-58
2023/07/21 02:30:11;;;;;;;2.60;2.40;;;13.30;99.90;;;;;;4995922;28;20478;-58
2023/07/21 02:32:39;;;;;;;4.10;2.53;;;13.30;99.90;;;;;;4999686;28;21034;-59
2023/07/21 02:35:08;;;;;;;2.93;2.63;;;13.30;99.90;;;;;;4998113;28;20498;-57
2023/07/21 02:37:37;;;;;;;2.50;2.20;;;13.30;99.90;;;;;;4992295;28;20469;-57
2023/07/21 02:40:06;;;;;;;2.67;2.43;;;13.30;99.90;;;;;;4993055;28;20481;-58
2023/07/21 02:42:35;;;;;;;2.20;2.10;;;13.30;99.90;;;;;;4993146;28;20490;-57
2023/07/21 02:45:05;;;;;;;2.60;2.40;;;13.40;99.90;;;;;;4999009;28;20484;-59
2023/07/21 02:47:34;;;;;;;2.77;2.57;;;13.30;99.90;;;;;;4992148;28;20468;-56
2023/07/21 02:50:02;;;;;;;2.93;2.47;;;13.30;99.90;;;;;;4995853;28;21422;-57
2023/07/21 02:52:30;;;;;;;2.70;2.50;;;13.30;99.90;;;;;;4996353;28;21125;-57
2023/07/21 02:54:58;;;;;;;3.30;3.00;;;13.30;99.90;;;;;;4995794;28;20496;-58
2023/07/21 02:57:26;;;;;;;3.20;2.90;;;13.30;99.90;;;;;;4993464;28;20531;-58
2023/07/21 02:59:54;;;;;;;5.87;2.50;;;13.30;99.90;;;;;;4999068;28;21075;-58
2023/07/21 03:02:23;;;;;;;2.90;2.50;;;13.30;99.90;;;;;;4998347;28;20615;-59
2023/07/21 03:04:52;;;;;;;3.87;2.80;;;13.30;99.90;;;;;;4999055;28;20575;-59
2023/07/21 03:07:20;;;;;;;3.03;2.83;;;13.30;99.90;;;;;;5002998;28;20480;-58
2023/07/21 03:09:48;;;;;;;3.73;3.30;;;13.30;99.90;;;;;;5000731;28;20861;-60
2023/07/21 03:12:16;;;;;;;3.07;2.77;;;13.30;99.90;;;;;;4998921;28;22252;-58
2023/07/21 03:14:46;;;;;;;4.70;2.90;;;13.30;99.90;;;;;;5001630;28;20488;-58
2023/07/21 03:17:14;;;;;;;3.00;2.70;;;13.30;99.90;;;;;;4997956;28;20501;-58
2023/07/21 03:19:44;;;;;;;3.70;3.10;;;13.30;99.90;;;;;;5001194;28;20511;-59
2023/07/21 03:22:16;;;;;;;4.50;3.67;;;13.30;99.90;;;;;;4998695;28;20503;-59
2023/07/21 03:24:44;;;;;;;2.90;2.60;;;13.30;99.90;;;;;;4995975;28;20490;-58
2023/07/21 03:27:13;;;;;;;3.77;2.87;;;13.40;99.90;;;;;;4997761;28;20484;-59
2023/07/21 03:29:42;;;;;;;3.67;2.87;;;13.30;99.90;;;;;;5001342;28;20477;-58
2023/07/21 03:32:13;;;;;;;3.13;2.80;;;13.40;99.90;;;;;;4998940;28;20487;-59
2023/07/21 03:34:41;;;;;;;3.30;2.40;;;13.40;99.90;;;;;;4999993;28;20926;-59
2023/07/21 03:37:11;;;;;;;3.03;2.60;;;13.40;99.90;;;;;;5000759;28;20559;-59
2023/07/21 03:39:38;;;;;;;3.17;2.77;;;13.50;99.90;;;;;;4999437;28;20472;-57
2023/07/21 03:42:07;;;;;;;3.00;2.70;;;13.50;99.90;;;;;;4997789;28;20496;-58
2023/07/21 03:44:35;;;;;;;2.80;2.50;;;13.50;99.90;;;;;;5001750;28;21060;-59
2023/07/21 03:47:03;;;;;;;3.20;2.90;;;13.50;99.90;;;;;;5003928;28;20554;-59
2023/07/21 03:49:31;;;;;;;2.57;2.37;;;13.50;99.90;;;;;;5001199;28;20473;-58
2023/07/21 03:51:59;;;;;;;2.90;2.60;;;13.50;99.90;;;;;;5000921;28;21033;-60
2023/07/21 03:54:29;;;;;;;3.00;2.80;;;13.50;99.90;;;;;;5001843;28;20578;-58
2023/07/21 03:56:57;;;;;;;3.43;3.13;;;13.50;99.90;;;;;;5002870;28;20548;-58
2023/07/21 03:59:25;;;;;;;2.47;2.27;;;13.50;99.90;;;;;;4996211;28;20979;-58
2023/07/21 04:01:53;;;;;;;3.00;2.50;;;13.50;99.90;;;;;;4999606;28;20563;-58
2023/07/21 04:04:21;;;;;;;3.20;2.73;;;13.60;99.90;;;;;;4999885;28;20576;-59
2023/07/21 04:06:50;;;;;;;4.20;2.90;;;13.60;99.90;;;;;;4997466;28;21011;-58
2023/07/21 04:09:18;;;;;;;2.77;2.57;;;13.60;99.90;;;;;;4995296;28;20573;-58
2023/07/21 04:11:48;;;;;;;3.90;2.97;;;13.60;99.90;;;;;;4996975;28;21117;-58
2023/07/21 04:14:16;;;;;;;3.23;2.93;;;13.60;99.90;;;;;;5000628;28;20498;-59
2023/07/21 04:16:43;;;;;;;3.30;2.97;;;13.60;99.90;;;;;;4998599;28;20551;-59
2023/07/21 04:19:12;;;;;;;3.70;2.70;;;13.60;99.90;;;;;;4999809;28;20555;-58
2023/07/21 04:21:40;;;;;;;4.20;2.90;;;13.70;99.90;;;;;;4998586;28;20477;-59
2023/07/21 04:24:08;;;;;;;2.93;2.57;;;13.60;99.90;;;;;;4999624;28;20571;-59
2023/07/21 04:26:36;;;;;;;3.90;3.20;;;13.60;99.90;;;;;;5001787;28;20471;-59
2023/07/21 04:29:06;;;;;;;3.20;3.00;;;13.70;99.90;;;;;;4998100;28;21048;-59
2023/07/21 04:31:36;;;;;;;2.90;2.70;;;13.70;99.90;;;;;;5000689;28;20495;-58
2023/07/21 04:34:04;;;;;;;4.33;3.33;;;13.70;99.90;;;;;;5000805;28;20490;-57
2023/07/21 04:36:35;;;;;;;3.60;3.07;;;13.80;99.90;;;;;;5002029;28;20469;-59
2023/07/21 04:39:03;;;;;;;4.50;3.10;;;13.80;99.90;;;;;;4994987;28;20613;-59
2023/07/21 04:41:31;;;;;;;3.57;3.23;;;13.80;99.90;;;;;;4993168;28;20492;-59
2023/07/21 04:43:59;;;;;;;3.33;3.13;;;13.80;99.90;;;;;;4996008;28;20521;-59
2023/07/21 04:46:29;;;;;;;3.63;2.87;;;13.80;99.90;;;;;;4991503;28;20500;-59
2023/07/21 04:48:57;;;;;;;3.07;2.87;;;13.80;99.90;;;;;;4989692;28;20479;-58
2023/07/21 04:51:25;;;;;;;3.40;3.10;;;13.90;99.90;;;;;;4991206;28;20484;-59
2023/07/21 04:53:53;;;;;;;3.23;2.93;;;13.90;99.90;;;;;;4991073;28;20613;-59
2023/07/21 04:56:21;;;;;;;3.40;3.10;;;14.00;99.90;;;;;;4992002;28;20566;-59
2023/07/21 04:58:50;;;;;;;3.40;3.10;;;14.10;99.90;;;;;;4998693;28;20473;-59
2023/07/21 05:01:18;;;;;;;4.13;3.50;;;14.10;99.90;;;;;;4997938;28;20568;-60
2023/07/21 05:03:47;;;;;;;3.13;2.93;;;14.20;99.90;;;;;;4998277;28;20500;-58
2023/07/21 05:06:15;;;;;;;3.57;3.27;;;14.30;99.90;;;;;;4992427;28;20571;-59
2023/07/21 05:08:45;;;;;;;4.10;3.53;;;14.30;99.90;;;;;;4997397;28;20501;-59
2023/07/21 05:11:13;;;;;;;3.50;3.10;;;14.40;99.90;;;;;;4997666;28;20485;-60
2023/07/21 05:13:41;;;;;;;5.37;3.33;;;14.50;99.90;;;;;;5000758;28;20973;-59
2023/07/21 05:16:08;;;;;;;3.87;2.90;;;14.60;99.90;;;;;;4998607;28;20559;-60
2023/07/21 05:18:37;;;;;;;4.23;3.10;;;14.70;99.90;;;;;;4993096;28;20561;-59
2023/07/21 05:21:06;;;;;;;5.13;2.80;;;14.70;99.90;;;;;;4993931;28;20504;-61
2023/07/21 05:23:34;;;;;;;4.23;2.70;;;14.80;99.90;;;;;;4997832;28;21185;-58
2023/07/21 05:26:03;;;;;;;7.13;3.30;;;14.90;99.90;;;;;;4996430;28;20625;-61
2023/07/21 05:28:31;;;;;;;3.20;2.50;;;14.90;99.90;;;;;;4995880;28;20476;-61
2023/07/21 05:30:59;;;;;;;2.80;2.53;;;15.00;99.90;;;;;;4994747;28;24367;-58
2023/07/21 05:33:27;;;;;;;3.03;2.50;;;15.10;99.90;;;;;;4997572;28;20460;-58
2023/07/21 05:36:05;;;;;;;3.37;3.03;;;15.10;99.90;;;;;;4996132;28;20488;-59
2023/07/21 05:38:35;;;;;;;5.63;2.87;;;15.20;99.90;;;;;;4994483;28;20475;-60
2023/07/21 05:41:03;;;;;;;5.10;2.50;;;15.20;99.90;;;;;;4997866;28;22689;-59
2023/07/21 05:43:31;;;;;;;2.37;2.07;;;15.30;99.90;;;;;;4996057;28;21036;-60
2023/07/21 05:46:02;;;;;;;4.27;2.00;;;15.40;99.90;;;;;;4997189;28;20586;-58
2023/07/21 05:48:30;;;;;;;6.40;2.47;;;15.50;99.90;;;;;;4997426;28;21032;-60
2023/07/21 05:50:58;;;;;;;3.77;2.20;;;15.50;99.90;;;;;;4995039;28;20927;-59
2023/07/21 05:53:26;;;;;;;3.00;2.00;;;15.60;99.90;;;;;;4999518;28;20468;-59
2023/07/21 05:55:56;;;;;;;2.10;1.90;;;15.60;99.90;;;;;;4998344;28;20498;-59
2023/07/21 05:58:24;;;;;;;2.73;1.90;;;15.70;99.90;;;;;;4998264;28;20953;-59
2023/07/21 06:00:52;;;;;;;2.50;2.00;;;15.80;99.90;;;;;;4996150;28;21135;-59
2023/07/21 06:03:20;;;;;;;2.87;2.03;;;15.80;99.90;;;;;;4997582;28;20492;-59
2023/07/21 06:05:52;;;;;;;2.33;2.13;;;15.80;99.90;;;;;;4999054;28;20515;-60
2023/07/21 06:08:20;;;;;;;2.23;2.03;;;15.80;99.90;;;;;;4998083;28;21420;-58
2023/07/21 06:10:48;;;;;;;3.97;2.20;;;15.80;99.90;;;;;;4997616;28;20468;-58
2023/07/21 06:13:17;;;;;;;3.37;1.87;;;15.90;99.90;;;;;;4995409;28;20469;-60
2023/07/21 06:15:45;;;;;;;2.03;1.83;;;15.90;99.90;;;;;;4997598;28;20679;-60
2023/07/21 06:18:13;;;;;;;3.40;2.30;;;16.00;99.90;;;;;;4997516;28;20567;-59
2023/07/21 06:20:41;;;;;;;3.03;2.07;;;16.00;99.90;;;;;;4998907;28;20564;-59
2023/07/21 06:23:09;;;;;;;3.90;2.30;;;16.10;99.90;;;;;;4994059;28;20503;-60
2023/07/21 06:25:38;;;;;;;2.70;1.90;;;16.20;99.90;;;;;;4997914;28;20492;-59
2023/07/21 06:28:06;;;;;;;3.03;2.10;;;16.20;99.90;;;;;;4997379;28;20512;-60
2023/07/21 06:30:35;;;;;;;2.93;1.93;;;16.20;99.90;;;;;;4995424;28;20493;-59
2023/07/21 06:33:06;;;;;;;5.30;2.97;;;16.30;99.90;;;;;;4996529;28;20485;-59
2023/07/21 06:35:35;;;;;;;3.23;2.20;;;16.40;99.90;;;;;;4998873;28;20500;-59
2023/07/21 06:38:03;;;;;;;4.40;2.60;;;16.40;99.90;;;;;;4997270;28;20511;-58
2023/07/21 06:40:31;;;;;;;3.87;1.97;;;16.50;99.90;;;;;;4997902;28;20477;-58
2023/07/21 06:42:59;;;;;;;4.63;2.50;;;16.60;99.90;;;;;;4995150;28;20488;-57
2023/07/21 06:45:28;;;;;;;4.43;2.13;;;16.70;99.90;;;;;;4995879;28;20628;-58
2023/07/21 06:47:57;;;;;;;3.40;2.27;;;16.70;99.90;;;;;;5000068;28;20508;-58
2023/07/21 06:50:25;;;;;;;4.57;2.20;;;16.80;99.90;;;;;;4998065;28;20570;-58
2023/07/21 06:52:53;;;;;;;2.23;2.03;;;16.80;99.90;;;;;;4993673;28;20513;-58
2023/07/21 06:55:21;;;;;;;4.10;2.20;;;16.80;99.90;;;;;;4998069;28;20567;-60
2023/07/21 06:57:49;;;;;;;2.60;2.13;;;16.80;99.90;;;;;;4995174;28;20531;-59
2023/07/21 07:00:18;;;;;;;2.17;1.60;;;16.90;99.90;;;;;;4995664;28;20472;-58
2023/07/21 07:02:49;;;;;;;3.67;2.20;;;16.90;99.90;;;;;;4992476;28;20523;-60
2023/07/21 07:05:19;;;;;;;2.77;2.00;;;17.00;99.90;;;;;;4977039;28;20500;-58
2023/07/21 07:07:52;;;;;;;3.40;1.60;;;17.00;99.90;;;;;;4994622;28;21058;-60
2023/07/21 07:10:20;;;;;;;2.03;1.83;;;17.10;99.90;;;;;;4991707;28;20560;-59
2023/07/21 07:12:48;;;;;;;2.87;1.73;;;17.10;99.90;;;;;;4991937;28;20488;-60
2023/07/21 07:15:16;;;;;;;3.97;2.10;;;17.10;99.90;;;;;;4989121;28;20514;-59
2023/07/21 07:17:44;;;;;;;2.00;1.90;;;17.10;99.90;;;;;;4994821;28;20560;-59
2023/07/21 07:20:12;;;;;;;2.50;1.80;;;17.20;99.90;;;;;;4992883;28;20490;-59
2023/07/21 07:22:41;;;;;;;2.00;1.90;;;17.30;99.90;;;;;;4991380;28;20485;-60
2023/07/21 07:25:10;;;;;;;2.57;2.00;;;17.30;99.90;;;;;;4996802;28;21062;-60
2023/07/21 07:27:38;;;;;;;2.40;1.60;;;17.30;99.90;;;;;;4997047;28;20825;-60
2023/07/21 07:30:08;;;;;;;2.60;2.00;;;17.20;99.90;;;;;;4997509;28;20497;-59
2023/07/21 07:32:36;;;;;;;1.73;1.63;;;17.20;99.90;;;;;;4995923;28;20535;-60
2023/07/21 07:35:05;;;;;;;2.17;1.97;;;17.20;99.90;;;;;;4996337;28;20572;-60
2023/07/21 07:37:33;;;;;;;2.20;2.00;;;17.30;99.90;;;;;;4993285;28;20475;-60
2023/07/21 07:40:05;;;;;;;4.30;2.30;;;17.30;99.90;;;;;;4994481;28;21521;-60
2023/07/21 07:42:33;;;;;;;2.20;2.00;;;17.30;99.90;;;;;;4994000;28;20577;-60
2023/07/21 07:45:01;;;;;;;2.93;2.00;;;17.30;99.90;;;;;;4993458;28;20495;-60
2023/07/21 07:47:29;;;;;;;1.97;1.80;;;17.30;99.90;;;;;;4993525;28;20555;-60
2023/07/21 07:49:57;;;;;;;2.60;2.40;;;17.40;99.90;;;;;;4996168;28;20464;-60
2023/07/21 07:52:25;;;;;;;1.67;1.57;;;17.50;99.90;;;;;;4999805;28;20481;-58
2023/07/21 07:54:53;;;;;;;2.20;1.97;;;17.60;99.90;;;;;;5001053;28;20520;-58
2023/07/21 07:57:25;;;;;;;2.97;1.80;;;17.70;99.90;;;;;;5000143;28;20472;-58
2023/07/21 07:59:55;;;;;;;2.47;1.90;;;17.70;99.90;;;;;;4997808;28;20566;-58
2023/07/21 08:02:23;;;;;;;1.50;1.40;;;17.70;99.90;;;;;;5000151;28;20525;-58
2023/07/21 08:04:51;;;;;;;3.43;2.10;;;17.70;99.90;;;;;;4995983;28;20503;-58
2023/07/21 08:07:19;;;;;;;2.23;1.63;;;17.60;99.90;;;;;;4999048;28;22589;-58
2023/07/21 08:09:47;;;;;;;2.80;1.70;;;17.60;99.90;;;;;;4992726;28;20552;-61
2023/07/21 08:12:15;;;;;;;3.30;1.60;;;17.70;99.90;;;;;;4996325;28;21157;-57
2023/07/21 08:14:45;;;;;;;2.00;1.77;;;17.70;99.90;;;;;;4998046;28;20517;-56
2023/07/21 08:17:13;;;;;;;2.27;1.53;;;17.90;99.90;;;;;;4995793;28;20516;-57
2023/07/21 08:19:41;;;;;;;2.20;1.70;;;17.90;99.90;;;;;;4993147;28;20894;-58
2023/07/21 08:22:10;;;;;;;2.70;1.90;;;17.90;99.90;;;;;;4996420;28;20576;-57
2023/07/21 08:24:38;;;;;;;3.43;2.10;;;17.90;99.90;;;;;;4996507;28;20513;-58
2023/07/21 08:27:07;;;;;;;2.30;1.73;;;17.80;99.90;;;;;;4999985;28;20567;-57
2023/07/21 08:29:35;;;;;;;2.00;1.80;;;17.80;99.90;;;;;;5003322;28;20933;-58
2023/07/21 08:32:05;;;;;;;1.77;1.67;;;17.80;99.90;;;;;;4999779;28;20558;-58
2023/07/21 08:34:34;;;;;;;2.33;1.70;;;17.90;99.90;;;;;;5001666;28;20503;-57
2023/07/21 08:37:03;;;;;;;3.10;2.00;;;18.00;99.90;;;;;;5001211;28;20477;-58
2023/07/21 08:39:31;;;;;;;3.63;2.10;;;18.00;99.90;;;;;;5002541;28;20542;-57
2023/07/21 08:42:03;;;;;;;2.43;1.80;;;18.00;99.90;;;;;;4998392;28;20592;-56
2023/07/21 08:44:32;;;;;;;3.30;2.13;;;18.00;99.90;;;;;;5002750;28;20497;-58
2023/07/21 08:47:00;;;;;;;2.93;2.10;;;18.10;99.90;;;;;;5003521;28;20552;-58
2023/07/21 08:49:30;;;;;;;2.63;1.90;;;18.20;99.90;;;;;;5001710;28;20500;-63
2023/07/21 08:51:59;;;;;;;3.40;1.90;;;18.30;99.90;;;;;;5000044;28;21089;-63
2023/07/21 08:54:27;;;;;;;2.50;2.10;;;18.30;99.90;;;;;;4994875;28;20542;-61
2023/07/21 08:56:55;;;;;;;2.20;1.93;;;18.40;99.90;;;;;;4997803;28;20511;-61
2023/07/21 08:59:23;;;;;;;4.87;2.10;;;18.40;99.90;;;;;;4995939;28;20467;-62
2023/07/21 09:01:51;;;;;;;2.67;2.10;;;18.50;99.90;;;;;;4995050;28;20484;-62
2023/07/21 09:04:20;;;;;;;5.53;2.00;;;18.60;99.90;;;;;;4996614;28;20511;-61
2023/07/21 09:06:54;;;;;;;2.93;2.00;;;18.60;99.90;;;;;;4994762;28;21032;-60
2023/07/21 09:09:23;;;;;;;2.53;1.53;;;18.70;99.90;;;;;;4995863;28;20528;-60
2023/07/21 09:11:59;;;;;;;2.23;2.00;;;18.80;99.90;;;;;;4998395;28;20583;-60
2023/07/21 09:14:36;;;;;;;2.40;2.00;;;18.80;99.90;;;;;;5000722;28;20492;-62
2023/07/21 09:17:05;;;;;;;1.53;1.43;;;18.80;99.90;;;;;;4999084;28;20566;-61
2023/07/21 09:19:37;;;;;;;1.80;1.70;;;18.80;99.90;;;;;;5001086;28;20476;-61
2023/07/21 09:22:07;;;;;;;2.60;1.80;;;18.90;99.90;;;;;;4997873;28;21092;-63
2023/07/21 09:24:37;;;;;;;1.70;1.60;;;19.00;99.90;;;;;;4996170;28;20949;-63
2023/07/21 09:27:12;;;;;;;2.43;1.50;;;19.20;99.90;;;;;;4995795;28;20961;-61
2023/07/21 09:29:41;;;;;;;1.83;1.70;;;19.30;99.90;;;;;;4997123;28;20502;-62
2023/07/21 09:32:13;;;;;;;2.23;1.37;;;19.30;99.90;;;;;;4991411;28;20493;-60
2023/07/21 09:34:55;;;;;;;1.90;1.63;;;19.30;99.90;;;;;;4997641;28;20517;-63
2023/07/21 09:37:27;;;;;;;1.60;1.50;;;19.40;99.90;;;;;;4994864;28;20847;-61
2023/07/21 09:39:57;;;;;;;1.70;1.60;;;19.40;99.90;;;;;;4998861;28;21039;-61
2023/07/21 09:42:26;;;;;;;1.90;1.80;;;19.60;99.90;;;;;;4998670;28;20500;-60
2023/07/21 09:44:55;;;;;;;2.03;1.70;;;19.60;99.90;;;;;;5000787;28;20560;-61
2023/07/21 09:47:24;;;;;;;1.50;1.40;;;19.70;99.90;;;;;;4997837;28;20473;-60
2023/07/21 09:49:54;;;;;;;1.93;1.83;;;19.80;99.90;;;;;;4999453;28;20535;-60
2023/07/21 09:52:24;;;;;;;1.70;1.60;;;19.80;99.90;;;;;;5000132;28;20484;-60
2023/07/21 09:55:00;;;;;;;2.23;2.03;;;19.80;99.90;;;;;;5000857;28;20563;-60
2023/07/21 09:57:30;;;;;;;2.60;1.90;;;19.90;99.90;;;;;;4994850;28;21293;-60
2023/07/21 10:00:03;;;;;;;2.73;1.63;;;20.00;99.90;;;;;;4995725;28;20479;-61
2023/07/21 10:02:35;;;;;;;2.40;1.90;;;20.10;99.90;;;;;;5000054;28;21032;-61
2023/07/21 10:05:05;;;;;;;1.90;1.70;;;20.20;99.90;;;;;;4994320;28;20510;-62
2023/07/21 10:07:33;;;;;;;2.23;1.67;;;20.20;99.90;;;;;;4993538;28;20573;-62
2023/07/21 10:10:05;;;;;;;2.30;2.10;;;20.20;99.90;;;;;;4996249;28;21055;-59
2023/07/21 10:12:42;;;;;;;2.40;1.83;;;20.30;99.90;;;;;;4996531;28;21048;-59
2023/07/21 10:15:21;;;;;;;1.80;1.70;;;20.40;99.90;;;;;;4996835;28;20586;-58
2023/07/21 10:17:57;;;;;;;2.03;1.90;;;20.40;99.90;;;;;;4999303;28;20469;-59
2023/07/21 10:20:42;;;;;;;2.70;1.90;;;20.50;99.90;;;;;;4995289;28;20998;-59
2023/07/21 10:23:11;;;;;;;2.13;1.57;;;20.50;99.90;;;;;;4997593;28;20923;-58
2023/07/21 10:26:00;;;;;;;3.37;1.50;;;20.50;99.90;;;;;;4998361;28;20499;-59
2023/07/21 10:28:37;;;;;;;3.10;2.00;;;20.50;99.90;;;;;;5001489;28;20984;-59
2023/07/21 10:31:36;;;;;;;2.27;2.07;;;20.50;99.90;;;;;;4999894;28;20472;-59
2023/07/21 10:34:08;;;;;;;1.80;1.53;;;20.40;99.90;;;;;;4997826;28;20499;-59
2023/07/21 10:36:49;;;;;;;2.80;1.90;;;20.30;99.90;;;;;;5000137;28;20990;-60
2023/07/21 10:39:20;;;;;;;1.90;1.80;;;20.30;99.90;;;;;;4998797;28;20562;-60
2023/07/21 10:41:51;;;;;;;4.60;1.60;;;20.30;99.90;;;;;;4996133;28;21011;-59
2023/07/21 10:44:20;;;;;;;1.80;1.70;;;20.20;99.90;;;;;;5001509;28;21984;-60
2023/07/21 10:46:49;;;;;;;2.87;2.20;;;20.30;99.90;;;;;;5000114;28;21012;-59
2023/07/21 10:49:19;;;;;;;1.60;1.50;;;20.50;99.90;;;;;;5000150;28;20508;-59
2023/07/21 10:51:48;;;;;;;3.17;1.87;;;20.50;99.90;;;;;;4999080;28;20950;-59
2023/07/21 10:54:17;;;;;;;1.60;1.50;;;20.50;99.90;;;;;;4995440;28;20642;-59
2023/07/21 10:56:46;;;;;;;1.40;1.30;;;20.40;99.90;;;;;;4995975;28;20476;-59
2023/07/21 10:59:18;;;;;;;2.10;1.40;;;20.40;99.90;;;;;;4998388;28;20495;-60
2023/07/21 11:01:47;;;;;;;2.10;1.40;;;20.40;99.90;;;;;;4997203;28;21241;-59
2023/07/21 11:04:17;;;;;;;1.83;1.57;;;20.60;99.90;;;;;;4995702;28;20538;-59
2023/07/21 11:06:47;;;;;;;1.47;1.37;;;20.80;99.90;;;;;;4996693;28;20615;-59
2023/07/21 11:09:16;;;;;;;1.67;1.40;;;21.00;99.90;;;;;;4995569;28;20472;-59
2023/07/21 11:11:46;;;;;;;1.47;1.37;;;21.10;99.90;;;;;;4985240;28;20587;-60
2023/07/21 11:14:17;;;;;;;1.97;1.40;;;21.40;99.90;;;;;;4994020;28;20571;-60
2023/07/21 11:16:45;;;;;;;1.10;1.10;;;21.50;99.90;;;;;;4992260;28;20471;-61
2023/07/21 11:19:16;;;;;;;1.80;1.30;;;21.80;99.90;;;;;;4999825;28;20496;-60
2023/07/21 11:21:44;;;;;;;2.03;1.30;;;22.00;99.90;;;;;;4990520;28;20488;-60
2023/07/21 11:24:16;;;;;;;1.07;1.00;;;22.20;99.90;;;;;;4995250;28;20580;-60
2023/07/21 11:26:47;;;;;;;1.53;1.43;;;22.30;99.90;;;;;;5002870;28;21401;-60
2023/07/21 11:29:16;;;;;;;1.50;1.40;;;22.30;99.90;;;;;;4996022;28;20472;-60
2023/07/21 11:31:44;;;;;;;2.53;1.57;;;22.30;99.90;;;;;;4997693;28;20578;-60
2023/07/21 11:34:19;;;;;;;1.40;1.30;;;22.20;99.90;;;;;;5000985;28;20519;-60
2023/07/21 11:36:49;;;;;;;2.73;1.63;;;22.20;99.90;;;;;;4999090;28;20547;-60
2023/07/21 11:39:20;;;;;;;1.30;1.30;;;22.10;99.90;;;;;;4996692;28;20468;-57
2023/07/21 11:41:50;;;;;;;1.57;1.47;;;22.20;99.90;;;;;;4997261;28;21132;-59
2023/07/21 11:44:21;;;;;;;1.50;1.40;;;22.20;99.90;;;;;;4996723;28;20575;-59
2023/07/21 11:46:58;;;;;;;1.57;1.30;;;22.30;99.90;;;;;;4997186;28;20496;-59
2023/07/21 11:49:28;;;;;;;1.53;1.43;;;22.30;99.90;;;;;;4997017;28;20853;-59
2023/07/21 11:52:00;;;;;;;1.60;1.50;;;22.30;99.90;;;;;;4993346;28;21219;-58
2023/07/21 11:54:30;;;;;;;1.50;1.40;;;22.30;99.90;;;;;;4996938;28;20888;-59
2023/07/21 11:56:59;;;;;;;1.43;1.33;;;22.30;99.90;;;;;;4999137;28;20496;-65
2023/07/21 11:59:29;;;;;;;1.83;1.40;;;22.40;99.90;;;;;;4998222;28;20559;-65
2023/07/21 12:01:57;;;;;;;1.43;1.10;;;22.50;99.90;;;;;;4997437;28;20527;-64
2023/07/21 12:04:25;;;;;;;1.63;1.50;;;22.70;99.90;;;;;;5000544;28;20576;-63
2023/07/21 12:06:56;;;;;;;1.50;1.40;;;22.90;99.90;;;;;;4996502;28;20866;-63
2023/07/21 12:09:24;;;;;;;1.40;1.30;;;23.00;99.90;;;;;;5001415;28;20467;-63
2023/07/21 12:11:54;;;;;;;1.53;1.30;;;23.20;98.20;;;;;;5000066;28;20555;-59
2023/07/21 12:14:23;;;;;;;1.40;1.30;;;23.30;92.60;;;;;;5000837;28;21228;-60
2023/07/21 12:16:55;;;;;;;1.40;1.30;;;23.10;91.80;;;;;;4999564;28;20540;-59
2023/07/21 12:19:24;;;;;;;1.07;1.07;;;23.10;93.20;;;;;;4990292;28;20496;-57
2023/07/21 12:21:52;;;;;;;1.43;1.33;;;23.10;93.30;;;;;;4997248;28;20879;-57
2023/07/21 12:24:21;;;;;;;1.43;1.33;;;23.10;96.00;;;;;;4998131;28;20859;-57
2023/07/21 12:26:49;;;;;;;1.23;1.13;;;23.10;99.90;;;;;;4987865;28;20582;-57
2023/07/21 12:29:17;;;;;;;2.07;1.20;;;23.10;99.90;;;;;;4996840;28;20484;-58
2023/07/21 12:32:08;;;;;;;2.13;1.50;;;23.10;99.90;;;;;;4991785;28;20543;-58
2023/07/21 12:34:37;;;;;;;1.53;1.43;;;23.00;99.90;;;;;;4988978;28;20500;-58
2023/07/21 12:37:05;;;;;;;1.97;1.50;;;22.90;99.90;;;;;;4998752;28;20467;-57
2023/07/21 12:39:33;;;;;;;1.60;1.50;;;22.70;99.90;;;;;;4999209;28;20538;-58
2023/07/21 12:42:01;;;;;;;1.37;1.20;;;22.50;99.90;;;;;;5000213;28;20472;-58
2023/07/21 12:44:30;;;;;;;1.60;1.50;;;22.30;99.90;;;;;;4999755;28;20584;-58
2023/07/21 12:46:58;;;;;;;1.37;1.23;;;22.20;99.90;;;;;;4996592;28;20914;-58
2023/07/21 12:49:27;;;;;;;1.50;1.40;;;22.00;99.90;;;;;;4983822;28;20582;-57
2023/07/21 12:51:55;;;;;;;2.20;1.57;;;22.00;99.90;;;;;;4993009;28;20486;-57
2023/07/21 12:54:23;;;;;;;1.73;1.63;;;22.00;99.90;;;;;;4992600;28;21063;-57
2023/07/21 12:56:51;;;;;;;1.47;1.33;;;21.90;99.90;;;;;;4984978;28;21151;-57
2023/07/21 12:59:19;;;;;;;1.70;1.60;;;22.00;99.90;;;;;;4997788;28;20483;-57